Finnhawk — OJNL — position and weather

sailwx.info

Track history (hours):
 
Tides and Currents Weather Stations Pressure Air Temp Water Temp Dewpoint Dewpoint Depression Visibility Wind Speed Wind Dir Waves Ship Positions

Finnhawk

Last reported at 2017-Mar-30 08:07 UTC. Time now 2017-Mar-30 14:25 UTC.
Position N 56°21' E 016°59'.

Length 163 m; draft 6.1 m.

Type: Ship. MMSI: 230007000.

Date/timePositionNaut miles runAvg speedWind from/ knotsBaromVisibWave heightAir tempDewpointWater temp
2017-Mar-30 08:07N 56°21' E 016°59'1016.7
2017-Mar-30 07:32N 56°12' E 016°53'1515.5
2017-Mar-30 06:33N 56°00' E 016°36'1616.2
2017-Mar-30 05:33N 55°52' E 016°10'1616.4
2017-Mar-30 04:33N 55°44' E 015°45'1616.4
2017-Mar-30 03:33N 55°36' E 015°20'1716.6
2017-Mar-30 02:34N 55°28' E 014°54'1716.4
2017-Mar-30 01:33N 55°18' E 014°32'1616.3
2017-Mar-30 00:34N 55°05' E 014°13'1616.4
2017-Mar-29 23:33N 54°57' E 013°49'6816.2
2017-Mar-29 19:23N 54°22' E 012°08'1113.9
2017-Mar-29 18:33N 54°11' E 012°05'3 0.9
2017-Mar-29 15:15N 54°08' E 012°06'0 0.0
2017-Mar-29 13:27N 54°08' E 012°06'0 0.0
2017-Mar-29 09:30N 54°08' E 012°06'0 0.0
2017-Mar-29 08:33N 54°08' E 012°06'0 0.0
2017-Mar-29 04:27N 54°08' E 012°06'1 0.4
2017-Mar-29 03:04N 54°09' E 012°06'2 3.7
2017-Mar-29 02:27N 54°11' E 012°05'1011.3
2017-Mar-29 01:33N 54°21' E 012°01'1615.9
2017-Mar-29 00:33N 54°35' E 012°14'1917.2
2017-Mar-28 23:26N 54°47' E 012°40'1516.7
2017-Mar-28 22:33N 54°52' E 013°04'1717.1
2017-Mar-28 21:34N 54°58' E 013°32'1717.0
2017-Mar-28 20:34N 55°04' E 013°60'1716.9
2017-Mar-28 19:34N 55°16' E 014°20'1716.8
2017-Mar-28 18:34N 55°28' E 014°39'1616.1
2017-Mar-28 17:34N 55°36' E 015°05'1716.9
2017-Mar-28 16:33N 55°44' E 015°31'1717.0
2017-Mar-28 15:33N 55°52' E 015°57'1716.6
2017-Mar-28 14:33N 56°01' E 016°23'1716.8
2017-Mar-28 13:33N 56°10' E 016°48'1716.8
2017-Mar-28 12:33N 56°20' E 017°12'1716.5
2017-Mar-28 11:33N 56°30' E 017°36'26117.4
2017-Mar-27 20:33N 59°46' E 023°01'262 8.1
2017-Mar-26 12:25N 56°26' E 017°42'1720.2
2017-Mar-26 11:33N 56°16' E 017°17'2020.2
2017-Mar-26 10:33N 56°04' E 016°48'2020.2
2017-Mar-26 09:33N 55°53' E 016°18'2020.0
2017-Mar-26 08:33N 55°43' E 015°47'2020.1
2017-Mar-26 07:33N 55°33' E 015°15'2020.3
2017-Mar-26 06:33N 55°24' E 014°43'2019.8
2017-Mar-26 05:32N 55°09' E 014°20'2319.6
2017-Mar-26 04:23N 54°57' E 013°47'1619.8
2017-Mar-26 03:33N 54°52' E 013°20'1919.4
2017-Mar-26 02:33N 54°46' E 012°48'1918.6
2017-Mar-26 01:33N 54°35' E 012°22'1917.7
2017-Mar-26 00:30N 54°19' E 012°04'11 2.5
2017-Mar-25 20:08N 54°09' E 012°06'0 0.0
2017-Mar-25 19:32N 54°09' E 012°06'0 0.0
2017-Mar-25 16:26N 54°09' E 012°06'1 1.1
2017-Mar-25 15:32N 54°10' E 012°06'1212.1
2017-Mar-25 14:34N 54°21' E 012°04'1716.6
2017-Mar-25 13:34N 54°36' E 012°15'7117.6
2017-Mar-25 09:32N 55°07' E 014°06'1717.7
2017-Mar-25 08:33N 55°20' E 014°25'1818.0
2017-Mar-25 07:33N 55°33' E 014°48'1818.2
2017-Mar-25 06:33N 55°41' E 015°16'1818.1
2017-Mar-25 05:34N 55°49' E 015°45'1818.0
2017-Mar-25 04:34N 55°58' E 016°13'1817.9
2017-Mar-25 03:33N 56°07' E 016°41'29518.2
2017-Mar-24 11:22N 59°41' E 023°03'26510.5
2017-Mar-23 10:11N 56°23' E 017°29'1016.2
2017-Mar-23 09:33N 56°17' E 017°15'1616.2
2017-Mar-23 08:33N 56°07' E 016°52'1616.3
2017-Mar-23 07:33N 55°58' E 016°28'1616.2
2017-Mar-23 06:33N 55°49' E 016°03'1616.1
2017-Mar-23 05:33N 55°41' E 015°38'1616.2
2017-Mar-23 04:34N 55°33' E 015°14'1616.0
2017-Mar-23 03:33N 55°26' E 014°48'1616.2
2017-Mar-23 02:33N 55°15' E 014°27'1616.4
2017-Mar-23 01:34N 55°03' E 014°09'1716.5
2017-Mar-23 00:33N 54°57' E 013°42'1716.7
2017-Mar-22 23:33N 54°51' E 013°14'1616.2
2017-Mar-22 22:33N 54°46' E 012°48'2016.1
2017-Mar-22 21:19N 54°35' E 012°19'1716.2
2017-Mar-22 20:15N 54°20' E 012°04'1012.6
2017-Mar-22 19:28N 54°10' E 012°06'2 0.2
2017-Mar-22 09:25N 54°08' E 012°06'0 0.0
2017-Mar-22 08:31N 54°08' E 012°06'0 0.0
2017-Mar-22 07:13N 54°08' E 012°06'0 0.0
2017-Mar-22 06:31N 54°08' E 012°06'0 0.0
2017-Mar-22 04:10N 54°08' E 012°06'2 2.4
2017-Mar-22 03:31N 54°10' E 012°06'1212.6
2017-Mar-22 02:34N 54°22' E 012°01'1514.9
2017-Mar-22 01:34N 54°35' E 012°14'4916.2
2017-Mar-21 22:31N 54°58' E 013°29'1516.0
2017-Mar-21 21:33N 55°03' E 013°54'1616.2
2017-Mar-21 20:33N 55°13' E 014°16'1616.4
2017-Mar-21 19:33N 55°26' E 014°34'1616.4
2017-Mar-21 18:33N 55°35' E 014°58'1716.5
2017-Mar-21 17:33N 55°43' E 015°24'1716.7
2017-Mar-21 16:33N 55°51' E 015°50'1716.6
2017-Mar-21 15:33N 55°59' E 016°16'1716.5
2017-Mar-21 14:33N 56°07' E 016°41'1716.9
2017-Mar-21 13:33N 56°18' E 017°06'  
Track history (hours):
 
Tides and Currents Weather Stations Pressure Air Temp Water Temp Dewpoint Dewpoint Depression Visibility Wind Speed Wind Dir Waves Ship Positions

Finnhawk

Last reported at 2017-Mar-30 08:07 UTC. Time now 2017-Mar-30 14:25 UTC.
Position N 56°21' E 016°59'.

Length 163 m; draft 6.1 m.

Type: Ship. MMSI: 230007000.

Date/timePositionNaut miles runAvg speedWind from/ knotsBaromVisibWave heightAir tempDewpointWater temp
2017-Mar-30 08:07N 56°21' E 016°59'1016.7
2017-Mar-30 07:32N 56°12' E 016°53'1515.5
2017-Mar-30 06:33N 56°00' E 016°36'1616.2
2017-Mar-30 05:33N 55°52' E 016°10'1616.4
2017-Mar-30 04:33N 55°44' E 015°45'1616.4
2017-Mar-30 03:33N 55°36' E 015°20'1716.6
2017-Mar-30 02:34N 55°28' E 014°54'1716.4
2017-Mar-30 01:33N 55°18' E 014°32'1616.3
2017-Mar-30 00:34N 55°05' E 014°13'1616.4
2017-Mar-29 23:33N 54°57' E 013°49'6816.2
2017-Mar-29 19:23N 54°22' E 012°08'1113.9
2017-Mar-29 18:33N 54°11' E 012°05'3 0.9
2017-Mar-29 15:15N 54°08' E 012°06'0 0.0
2017-Mar-29 13:27N 54°08' E 012°06'0 0.0
2017-Mar-29 09:30N 54°08' E 012°06'0 0.0
2017-Mar-29 08:33N 54°08' E 012°06'0 0.0
2017-Mar-29 04:27N 54°08' E 012°06'1 0.4
2017-Mar-29 03:04N 54°09' E 012°06'2 3.7
2017-Mar-29 02:27N 54°11' E 012°05'1011.3
2017-Mar-29 01:33N 54°21' E 012°01'1615.9
2017-Mar-29 00:33N 54°35' E 012°14'1917.2
2017-Mar-28 23:26N 54°47' E 012°40'1516.7
2017-Mar-28 22:33N 54°52' E 013°04'1717.1
2017-Mar-28 21:34N 54°58' E 013°32'1717.0
2017-Mar-28 20:34N 55°04' E 013°60'1716.9
2017-Mar-28 19:34N 55°16' E 014°20'1716.8
2017-Mar-28 18:34N 55°28' E 014°39'1616.1
2017-Mar-28 17:34N 55°36' E 015°05'1716.9
2017-Mar-28 16:33N 55°44' E 015°31'1717.0
2017-Mar-28 15:33N 55°52' E 015°57'1716.6
2017-Mar-28 14:33N 56°01' E 016°23'1716.8
2017-Mar-28 13:33N 56°10' E 016°48'1716.8
2017-Mar-28 12:33N 56°20' E 017°12'1716.5
2017-Mar-28 11:33N 56°30' E 017°36'26117.4
2017-Mar-27 20:33N 59°46' E 023°01'262 8.1
2017-Mar-26 12:25N 56°26' E 017°42'1720.2
2017-Mar-26 11:33N 56°16' E 017°17'2020.2
2017-Mar-26 10:33N 56°04' E 016°48'2020.2
2017-Mar-26 09:33N 55°53' E 016°18'2020.0
2017-Mar-26 08:33N 55°43' E 015°47'2020.1
2017-Mar-26 07:33N 55°33' E 015°15'2020.3
2017-Mar-26 06:33N 55°24' E 014°43'2019.8
2017-Mar-26 05:32N 55°09' E 014°20'2319.6
2017-Mar-26 04:23N 54°57' E 013°47'1619.8
2017-Mar-26 03:33N 54°52' E 013°20'1919.4
2017-Mar-26 02:33N 54°46' E 012°48'1918.6
2017-Mar-26 01:33N 54°35' E 012°22'1917.7
2017-Mar-26 00:30N 54°19' E 012°04'11 2.5
2017-Mar-25 20:08N 54°09' E 012°06'0 0.0
2017-Mar-25 19:32N 54°09' E 012°06'0 0.0
2017-Mar-25 16:26N 54°09' E 012°06'1 1.1
2017-Mar-25 15:32N 54°10' E 012°06'1212.1
2017-Mar-25 14:34N 54°21' E 012°04'1716.6
2017-Mar-25 13:34N 54°36' E 012°15'7117.6
2017-Mar-25 09:32N 55°07' E 014°06'1717.7
2017-Mar-25 08:33N 55°20' E 014°25'1818.0
2017-Mar-25 07:33N 55°33' E 014°48'1818.2
2017-Mar-25 06:33N 55°41' E 015°16'1818.1
2017-Mar-25 05:34N 55°49' E 015°45'1818.0
2017-Mar-25 04:34N 55°58' E 016°13'1817.9
2017-Mar-25 03:33N 56°07' E 016°41'29518.2
2017-Mar-24 11:22N 59°41' E 023°03'26510.5
2017-Mar-23 10:11N 56°23' E 017°29'1016.2
2017-Mar-23 09:33N 56°17' E 017°15'1616.2
2017-Mar-23 08:33N 56°07' E 016°52'1616.3
2017-Mar-23 07:33N 55°58' E 016°28'1616.2
2017-Mar-23 06:33N 55°49' E 016°03'1616.1
2017-Mar-23 05:33N 55°41' E 015°38'1616.2
2017-Mar-23 04:34N 55°33' E 015°14'1616.0
2017-Mar-23 03:33N 55°26' E 014°48'1616.2
2017-Mar-23 02:33N 55°15' E 014°27'1616.4
2017-Mar-23 01:34N 55°03' E 014°09'1716.5
2017-Mar-23 00:33N 54°57' E 013°42'1716.7
2017-Mar-22 23:33N 54°51' E 013°14'1616.2
2017-Mar-22 22:33N 54°46' E 012°48'2016.1
2017-Mar-22 21:19N 54°35' E 012°19'1716.2
2017-Mar-22 20:15N 54°20' E 012°04'1012.6
2017-Mar-22 19:28N 54°10' E 012°06'2 0.2
2017-Mar-22 09:25N 54°08' E 012°06'0 0.0
2017-Mar-22 08:31N 54°08' E 012°06'0 0.0
2017-Mar-22 07:13N 54°08' E 012°06'0 0.0
2017-Mar-22 06:31N 54°08' E 012°06'0 0.0
2017-Mar-22 04:10N 54°08' E 012°06'2 2.4
2017-Mar-22 03:31N 54°10' E 012°06'1212.6
2017-Mar-22 02:34N 54°22' E 012°01'1514.9
2017-Mar-22 01:34N 54°35' E 012°14'4916.2
2017-Mar-21 22:31N 54°58' E 013°29'1516.0
2017-Mar-21 21:33N 55°03' E 013°54'1616.2
2017-Mar-21 20:33N 55°13' E 014°16'1616.4
2017-Mar-21 19:33N 55°26' E 014°34'1616.4
2017-Mar-21 18:33N 55°35' E 014°58'1716.5
2017-Mar-21 17:33N 55°43' E 015°24'1716.7
2017-Mar-21 16:33N 55°51' E 015°50'1716.6
2017-Mar-21 15:33N 55°59' E 016°16'1716.5
2017-Mar-21 14:33N 56°07' E 016°41'1716.9
2017-Mar-21 13:33N 56°18' E 017°06'  

Dump ship's entire track history